Jervis Bay, Australia
Current Conditions -  °F | °C
As of 6:00 AM on Monday 24 Nov 2014 (Local Time) from YSNW Reporting Station
Clear Clear  
Wind Chill: 66°   Ceiling: Unl
Heat Index: 66°   Visibility: 6mi
Dew Point: 64°   Wind: 2mph
Humidity: 94%   Direction: 10°N
Pressure: 29.88"   Gusts: NA
Location:  35.13°S, 150.71°E
Report Text: YSNW 231900Z 01002KT CAVOK 19/18 Q1012
Loading
Personal Weather Stations






























Interactive Weather Map New forecast layout! Learn more

10-Day Weather Forecast

Advertisements
Track Severe Weather on mobile